createdAt,value
2023-04-11T00:01:51.628Z,56.35
2023-04-11T00:04:18.277Z,57.13
2023-04-11T00:06:44.891Z,57.03
2023-04-11T00:09:11.501Z,56.96
2023-04-11T00:11:38.091Z,56.89
2023-04-11T00:14:04.684Z,57.74
2023-04-11T00:16:31.322Z,57.01
2023-04-11T00:18:58.069Z,57.28
2023-04-11T00:21:24.689Z,56.74
2023-04-11T00:23:51.560Z,57.19
2023-04-11T00:26:18.118Z,57.52
2023-04-11T00:28:44.972Z,57.21
2023-04-11T00:31:11.533Z,57.10
2023-04-11T00:33:39.884Z,56.71
2023-04-11T00:36:07.479Z,57.11
2023-04-11T00:38:34.119Z,57.39
2023-04-11T00:41:00.754Z,57.12
2023-04-11T00:43:27.361Z,57.29
2023-04-11T00:45:53.960Z,57.83
2023-04-11T00:48:21.139Z,57.36
2023-04-11T00:50:47.740Z,57.14
2023-04-11T00:53:14.272Z,57.23
2023-04-11T00:55:40.837Z,57.31
2023-04-11T00:58:07.537Z,56.88
2023-04-11T01:00:34.108Z,57.45
2023-04-11T01:03:00.781Z,58.77
2023-04-11T01:05:27.481Z,59.16
2023-04-11T01:07:54.105Z,59.62
2023-04-11T01:10:20.677Z,58.13
2023-04-11T01:12:47.289Z,57.93
2023-04-11T01:15:13.858Z,58.00
2023-04-11T01:17:40.435Z,58.56
2023-04-11T01:20:07.039Z,58.28
2023-04-11T01:22:33.646Z,58.43
2023-04-11T01:25:00.227Z,58.21
2023-04-11T01:27:26.791Z,58.34
2023-04-11T01:29:53.348Z,58.36
2023-04-11T01:32:20.049Z,58.36
2023-04-11T01:34:46.613Z,58.84
2023-04-11T01:37:13.278Z,58.84
2023-04-11T01:39:39.935Z,58.89
2023-04-11T01:42:06.484Z,58.12
2023-04-11T01:44:33.245Z,58.01
2023-04-11T01:46:59.871Z,58.07
2023-04-11T01:49:26.425Z,58.40
2023-04-11T01:51:53.007Z,58.87
2023-04-11T01:54:19.607Z,58.41
2023-04-11T01:56:46.256Z,58.18
2023-04-11T01:59:12.916Z,58.79
2023-04-11T02:01:39.632Z,59.42
2023-04-11T02:04:06.323Z,60.02
2023-04-11T02:06:32.917Z,58.93
2023-04-11T02:08:59.465Z,58.98
2023-04-11T02:11:26.045Z,58.26
2023-04-11T02:13:52.648Z,58.73
2023-04-11T02:16:19.308Z,58.39
2023-04-11T02:18:45.930Z,58.10
2023-04-11T02:21:12.570Z,57.51
2023-04-11T02:23:39.363Z,57.74
2023-04-11T02:26:05.921Z,58.21
2023-04-11T02:28:32.548Z,58.59
2023-04-11T02:30:59.197Z,59.13
2023-04-11T02:33:25.797Z,59.71
2023-04-11T02:35:52.347Z,60.17
2023-04-11T02:38:19.037Z,59.92
2023-04-11T02:40:45.569Z,60.07
2023-04-11T02:43:12.134Z,60.90
2023-04-11T02:45:38.657Z,61.47
2023-04-11T02:48:05.257Z,61.30
2023-04-11T02:50:31.866Z,62.08
2023-04-11T02:52:58.415Z,60.82
2023-04-11T02:55:24.987Z,61.57
2023-04-11T02:57:51.531Z,60.91
2023-04-11T03:00:18.155Z,61.92
2023-04-11T03:02:44.776Z,62.22
2023-04-11T03:05:11.398Z,62.17
2023-04-11T03:07:37.955Z,61.90
2023-04-11T03:10:04.582Z,61.52
2023-04-11T03:12:31.117Z,61.33
2023-04-11T03:14:57.680Z,62.35
2023-04-11T03:17:24.329Z,62.12
2023-04-11T03:19:50.907Z,61.40
2023-04-11T03:22:17.501Z,60.63
2023-04-11T03:24:44.048Z,60.51
2023-04-11T03:27:10.697Z,60.85
2023-04-11T03:29:37.361Z,60.32
2023-04-11T03:32:04.088Z,60.46
2023-04-11T03:34:30.697Z,61.02
2023-04-11T03:36:57.269Z,60.77
2023-04-11T03:39:23.860Z,61.02
2023-04-11T03:41:50.440Z,60.50
2023-04-11T03:44:17.013Z,60.45
2023-04-11T03:46:43.615Z,60.95
2023-04-11T03:49:10.873Z,60.31
2023-04-11T03:51:37.449Z,60.29
2023-04-11T03:54:04.055Z,61.04
2023-04-11T03:56:32.915Z,60.60
2023-04-11T03:58:59.562Z,61.84
2023-04-11T04:01:26.137Z,61.09
2023-04-11T04:03:52.963Z,60.93
2023-04-11T04:06:21.713Z,61.23
2023-04-11T04:08:48.305Z,60.68
2023-04-11T04:11:14.908Z,60.86
2023-04-11T04:13:41.447Z,60.44
2023-04-11T04:16:08.089Z,59.94
2023-04-11T04:18:34.689Z,60.60
2023-04-11T04:21:02.144Z,60.23
2023-04-11T04:23:28.715Z,59.88
2023-04-11T04:25:55.267Z,60.68
2023-04-11T04:28:21.907Z,60.21
2023-04-11T04:30:48.529Z,60.54
2023-04-11T04:33:15.245Z,59.90
2023-04-11T04:35:41.841Z,59.84
2023-04-11T04:38:08.451Z,59.59
2023-04-11T04:40:35.026Z,60.24
2023-04-11T04:43:01.617Z,60.21
2023-04-11T04:45:28.211Z,59.26
2023-04-11T04:47:54.831Z,60.10
2023-04-11T04:50:21.444Z,60.07
2023-04-11T04:52:48.007Z,60.44
2023-04-11T04:55:14.667Z,60.90
2023-04-11T04:57:41.203Z,60.35
2023-04-11T05:00:07.771Z,59.51
2023-04-11T05:02:34.424Z,59.70
2023-04-11T05:05:01.096Z,60.31
2023-04-11T05:07:27.647Z,60.64
2023-04-11T05:09:55.337Z,60.98
2023-04-11T05:12:21.973Z,61.39
2023-04-11T05:14:48.515Z,61.17
2023-04-11T05:17:15.071Z,61.01
2023-04-11T05:19:41.645Z,61.23
2023-04-11T05:22:08.284Z,61.99
2023-04-11T05:24:34.879Z,61.63
2023-04-11T05:27:01.538Z,61.10
2023-04-11T05:29:28.498Z,60.90
2023-04-11T05:31:55.065Z,60.84
2023-04-11T05:34:21.669Z,61.21
2023-04-11T05:36:48.216Z,62.01
2023-04-11T05:39:14.860Z,61.74
2023-04-11T05:41:41.433Z,60.20
2023-04-11T05:44:08.004Z,59.79
2023-04-11T05:46:34.753Z,58.89
2023-04-11T05:49:01.463Z,58.94
2023-04-11T05:51:28.013Z,57.52
2023-04-11T05:53:54.928Z,57.22
2023-04-11T05:56:21.738Z,57.52
2023-04-11T05:58:48.333Z,55.27
2023-04-11T06:01:14.900Z,55.37
2023-04-11T06:03:41.662Z,54.72
2023-04-11T06:06:08.390Z,54.76
2023-04-11T06:08:34.929Z,52.70
2023-04-11T06:11:01.536Z,53.19
2023-04-11T06:13:28.094Z,53.08
2023-04-11T06:15:54.667Z,53.99
2023-04-11T06:18:21.272Z,52.77
2023-04-11T06:20:47.826Z,52.08
2023-04-11T06:23:14.414Z,52.22
2023-04-11T06:25:41.539Z,52.08
2023-04-11T06:28:08.104Z,51.77
2023-04-11T06:30:34.682Z,51.14
2023-04-11T06:33:01.313Z,52.25
2023-04-11T06:35:27.946Z,53.03
2023-04-11T06:37:54.532Z,52.25
2023-04-11T06:40:21.112Z,51.96
2023-04-11T06:42:47.690Z,51.49
2023-04-11T06:45:14.238Z,52.00
2023-04-11T06:47:40.914Z,51.33
2023-04-11T06:50:07.538Z,50.83
2023-04-11T06:52:34.117Z,50.97
2023-04-11T06:55:00.703Z,50.82
2023-04-11T06:57:27.309Z,50.56
2023-04-11T06:59:53.867Z,50.26
2023-04-11T07:02:20.589Z,50.23
2023-04-11T07:04:47.258Z,50.16
2023-04-11T07:07:13.968Z,50.63
2023-04-11T07:09:40.583Z,49.03
2023-04-11T07:12:07.177Z,49.82
2023-04-11T07:14:33.756Z,49.08
2023-04-11T07:17:00.353Z,48.41
2023-04-11T07:19:26.947Z,48.21
2023-04-11T07:21:53.553Z,47.96
2023-04-11T07:24:20.153Z,47.35
2023-04-11T07:26:46.911Z,47.16
2023-04-11T07:29:14.859Z,46.90
2023-04-11T07:31:41.691Z,46.54
2023-04-11T07:34:08.296Z,46.33
2023-04-11T07:36:34.984Z,46.81
2023-04-11T07:39:01.624Z,46.90
2023-04-11T07:41:28.207Z,47.02
2023-04-11T07:43:55.050Z,47.19
2023-04-11T07:46:21.732Z,47.41
2023-04-11T07:48:48.349Z,46.35
2023-04-11T07:51:14.909Z,46.04
2023-04-11T07:53:41.477Z,45.96
2023-04-11T07:56:08.095Z,45.25
2023-04-11T07:58:34.657Z,45.28
2023-04-11T08:01:01.636Z,46.00
2023-04-11T08:03:28.468Z,44.95
2023-04-11T08:05:55.231Z,44.90
2023-04-11T08:08:21.820Z,44.26
2023-04-11T08:10:50.652Z,44.37
2023-04-11T08:13:18.884Z,43.74
2023-04-11T08:15:45.476Z,44.14
2023-04-11T08:18:12.366Z,44.60
2023-04-11T08:20:39.149Z,44.23
2023-04-11T08:23:05.990Z,43.30
2023-04-11T08:25:32.623Z,44.36
2023-04-11T08:27:59.276Z,43.44
2023-04-11T08:30:25.950Z,43.79
2023-04-11T08:32:52.636Z,44.53
2023-04-11T08:35:19.317Z,43.92
2023-04-11T08:37:45.983Z,44.80
2023-04-11T08:40:12.659Z,45.58
2023-04-11T08:42:39.262Z,46.32
2023-04-11T08:45:05.849Z,46.19
2023-04-11T08:47:32.460Z,45.47
2023-04-11T08:49:59.072Z,44.75
2023-04-11T08:52:25.648Z,43.96
2023-04-11T08:54:52.246Z,44.24
2023-04-11T08:57:18.814Z,43.41
2023-04-11T08:59:45.373Z,43.62
2023-04-11T09:02:12.107Z,43.65
2023-04-11T09:04:38.864Z,43.60
2023-04-11T09:07:05.455Z,42.78
2023-04-11T09:09:32.177Z,42.43
2023-04-11T09:11:58.795Z,43.08
2023-04-11T09:14:25.373Z,41.54
2023-04-11T09:16:52.000Z,42.37
2023-04-11T09:19:18.931Z,42.63
2023-04-11T09:21:45.529Z,42.72
2023-04-11T09:24:12.444Z,42.37
2023-04-11T09:26:39.035Z,42.22
2023-04-11T09:29:05.603Z,42.46
2023-04-11T09:31:32.196Z,42.18
2023-04-11T09:33:59.405Z,41.95
2023-04-11T09:36:26.190Z,41.75
2023-04-11T09:38:52.766Z,41.16
2023-04-11T09:41:19.305Z,41.67
2023-04-11T09:43:45.902Z,41.87
2023-04-11T09:46:12.475Z,42.20
2023-04-11T09:48:46.628Z,41.21
2023-04-11T09:51:18.055Z,40.81
2023-04-11T09:53:47.589Z,40.90
2023-04-11T09:56:14.194Z,40.66
2023-04-11T09:58:40.849Z,39.81
2023-04-11T10:01:07.410Z,40.06
2023-04-11T10:03:36.037Z,40.74
2023-04-11T10:06:02.637Z,40.44
2023-04-11T10:08:29.549Z,40.09
2023-04-11T10:10:56.154Z,39.82
2023-04-11T10:13:22.727Z,39.96
2023-04-11T10:15:49.362Z,40.22
2023-04-11T10:18:15.930Z,40.70
2023-04-11T10:20:42.531Z,38.88
2023-04-11T10:23:09.069Z,39.59
2023-04-11T10:25:35.707Z,39.59
2023-04-11T10:28:02.284Z,40.75
2023-04-11T10:30:28.874Z,42.22
2023-04-11T10:32:55.534Z,43.45
2023-04-11T10:35:22.072Z,43.33
2023-04-11T10:37:48.654Z,44.02
2023-04-11T10:40:15.213Z,42.58
2023-04-11T10:42:41.828Z,40.98
2023-04-11T10:45:08.522Z,40.09
2023-04-11T10:47:35.102Z,40.79
2023-04-11T10:50:01.688Z,41.30
2023-04-11T10:52:28.349Z,41.28
2023-04-11T10:54:55.240Z,41.14
2023-04-11T10:57:21.836Z,38.86
2023-04-11T10:59:48.397Z,38.91
2023-04-11T11:02:15.214Z,37.74
2023-04-11T11:04:41.904Z,37.88
2023-04-11T11:07:08.645Z,37.58
2023-04-11T11:09:35.254Z,36.82
2023-04-11T11:12:01.824Z,38.29
2023-04-11T11:14:28.430Z,37.09
2023-04-11T11:16:55.025Z,36.81
2023-04-11T11:19:21.644Z,38.91
2023-04-11T11:21:48.209Z,41.09
2023-04-11T11:24:14.791Z,38.01
2023-04-11T11:26:41.379Z,38.37
2023-04-11T11:29:07.990Z,36.60
2023-04-11T11:31:34.650Z,35.94
2023-04-11T11:34:18.393Z,36.71
2023-04-11T11:36:47.827Z,39.00
2023-04-11T11:39:14.455Z,37.50
2023-04-11T11:41:41.034Z,39.38
2023-04-11T11:44:07.656Z,37.60
2023-04-11T11:46:34.299Z,39.45
2023-04-11T11:49:01.216Z,36.85
2023-04-11T11:51:28.069Z,37.27
2023-04-11T11:53:54.717Z,38.32
2023-04-11T11:56:21.263Z,37.02
2023-04-11T11:58:48.010Z,37.35
2023-04-11T12:03:46.411Z,37.24
2023-04-11T12:06:13.063Z,36.31
2023-04-11T12:08:39.653Z,35.14
2023-04-11T12:11:06.431Z,35.46
2023-04-11T12:13:33.328Z,35.91
2023-04-11T12:15:59.941Z,35.22
2023-04-11T12:18:26.603Z,35.23
2023-04-11T12:20:53.270Z,34.87
2023-04-11T12:23:19.839Z,35.66
2023-04-11T12:25:46.428Z,36.17
2023-04-11T12:28:13.058Z,34.53
2023-04-11T12:30:39.622Z,34.42
2023-04-11T12:33:06.433Z,33.09
2023-04-11T12:35:33.122Z,34.63
2023-04-11T12:37:59.686Z,33.35
2023-04-11T12:40:26.598Z,32.02
2023-04-11T12:42:57.320Z,33.75
2023-04-11T12:45:24.182Z,32.63
2023-04-11T12:47:50.784Z,32.82
2023-04-11T12:50:17.447Z,32.37
2023-04-11T12:52:44.076Z,32.65
2023-04-11T12:55:10.653Z,32.11
2023-04-11T12:57:37.241Z,32.16
2023-04-11T13:00:03.834Z,32.24
2023-04-11T13:02:38.181Z,31.26
2023-04-11T13:05:09.302Z,34.93
2023-04-11T13:07:36.000Z,33.44
2023-04-11T13:10:02.628Z,32.34
2023-04-11T13:12:30.419Z,32.92
2023-04-11T13:14:56.980Z,31.82
2023-04-11T13:17:23.578Z,32.40
2023-04-11T13:19:50.134Z,30.87
2023-04-11T13:22:16.721Z,31.62
2023-04-11T13:24:43.351Z,33.14
2023-04-11T13:27:09.927Z,33.84
2023-04-11T13:29:36.475Z,33.56
2023-04-11T13:32:03.122Z,32.31
2023-04-11T13:34:29.732Z,33.05
2023-04-11T13:36:56.280Z,32.52
2023-04-11T13:39:22.835Z,32.79
2023-04-11T13:41:49.387Z,31.56
2023-04-11T13:44:15.973Z,33.47
2023-04-11T13:46:42.653Z,34.98
2023-04-11T13:49:09.200Z,34.95
2023-04-11T13:51:35.758Z,34.67
2023-04-11T13:54:02.376Z,33.79
2023-04-11T13:56:28.937Z,33.99
2023-04-11T13:58:55.853Z,34.03
2023-04-11T14:01:22.670Z,32.63
2023-04-11T14:03:49.703Z,32.78
2023-04-11T14:06:16.449Z,32.73
2023-04-11T14:08:43.173Z,32.60
2023-04-11T14:11:09.896Z,32.97
2023-04-11T14:13:36.667Z,33.62
2023-04-11T14:16:12.286Z,32.52
2023-04-11T14:18:38.930Z,33.93
2023-04-11T14:21:05.716Z,33.96
2023-04-11T14:23:32.327Z,33.14
2023-04-11T14:25:58.888Z,33.74
2023-04-11T14:28:26.992Z,33.11
2023-04-11T14:30:54.054Z,34.23
2023-04-11T14:33:20.833Z,34.36
2023-04-11T14:35:47.457Z,35.01
2023-04-11T14:38:14.000Z,35.06
2023-04-11T14:40:40.561Z,35.23
2023-04-11T14:43:07.142Z,35.99
2023-04-11T14:45:33.721Z,35.05
2023-04-11T14:48:00.359Z,36.33
2023-04-11T14:50:28.963Z,37.34
2023-04-11T14:52:55.769Z,37.60
2023-04-11T14:55:22.437Z,37.31
2023-04-11T14:57:49.161Z,37.14
2023-04-11T15:00:15.719Z,37.33
2023-04-11T15:02:42.505Z,38.80
2023-04-11T15:05:09.095Z,39.39
2023-04-11T15:07:35.711Z,39.94
2023-04-11T15:10:02.320Z,39.05
2023-04-11T15:12:28.888Z,38.61
2023-04-11T15:14:55.527Z,37.93
2023-04-11T15:17:22.122Z,38.17
2023-04-11T15:19:48.750Z,38.25
2023-04-11T15:22:15.314Z,38.08
2023-04-11T15:24:42.012Z,38.67
2023-04-11T15:27:08.570Z,39.32
2023-04-11T15:29:37.419Z,39.01
2023-04-11T15:32:03.983Z,39.04
2023-04-11T15:34:30.530Z,39.10
2023-04-11T15:36:57.091Z,39.81
2023-04-11T15:39:23.687Z,39.67
2023-04-11T15:41:50.649Z,40.10
2023-04-11T15:44:17.287Z,41.46
2023-04-11T15:46:45.006Z,41.34
2023-04-11T15:49:12.599Z,41.51
2023-04-11T15:51:39.211Z,42.00
2023-04-11T15:54:05.820Z,42.78
2023-04-11T15:56:32.488Z,42.76
2023-04-11T15:58:59.042Z,44.49
2023-04-11T16:01:25.720Z,44.90
2023-04-11T16:03:52.496Z,45.10
2023-04-11T16:06:19.181Z,44.99
2023-04-11T16:08:45.746Z,46.93
2023-04-11T16:11:12.315Z,47.23
2023-04-11T16:13:38.871Z,48.39
2023-04-11T16:16:05.468Z,47.81
2023-04-11T16:18:32.092Z,48.11
2023-04-11T16:20:58.654Z,47.63
2023-04-11T16:23:25.190Z,47.60
2023-04-11T16:25:52.042Z,46.64
2023-04-11T16:28:18.707Z,46.13
2023-04-11T16:30:45.321Z,45.27
2023-04-11T16:33:11.876Z,45.60
2023-04-11T16:35:38.519Z,45.63
2023-04-11T16:38:05.111Z,45.41
2023-04-11T16:40:31.718Z,44.59
2023-04-11T16:42:58.298Z,44.21
2023-04-11T16:45:24.911Z,43.79
2023-04-11T16:47:51.565Z,44.35
2023-04-11T16:50:18.158Z,44.25
2023-04-11T16:52:44.768Z,44.08
2023-04-11T16:55:11.316Z,44.49
2023-04-11T16:57:37.883Z,43.92
2023-04-11T17:00:04.530Z,42.07
2023-04-11T17:02:31.268Z,42.70
2023-04-11T17:04:58.293Z,43.04
2023-04-11T17:07:24.848Z,41.56
2023-04-11T17:09:51.427Z,40.39
2023-04-11T17:12:17.981Z,39.48
2023-04-11T17:14:44.628Z,39.00
2023-04-11T17:17:11.300Z,37.90
2023-04-11T17:19:38.017Z,37.24
2023-04-11T17:22:04.620Z,37.86
2023-04-11T17:24:31.349Z,38.01
2023-04-11T17:26:57.930Z,37.14
2023-04-11T17:29:24.533Z,37.46
2023-04-11T17:31:51.115Z,37.41
2023-04-11T17:34:17.657Z,37.39
2023-04-11T17:36:44.221Z,36.65
2023-04-11T17:39:10.816Z,37.49
2023-04-11T17:41:37.381Z,37.31
2023-04-11T17:44:03.934Z,36.72
2023-04-11T17:46:30.531Z,37.39
2023-04-11T17:48:57.170Z,36.66
2023-04-11T17:51:23.733Z,36.87
2023-04-11T17:53:50.287Z,37.07
2023-04-11T17:56:16.867Z,37.03
2023-04-11T17:58:44.291Z,37.09
2023-04-11T18:01:10.960Z,37.34
2023-04-11T18:03:37.796Z,39.09
2023-04-11T18:06:04.570Z,38.92
2023-04-11T18:08:49.044Z,38.43
2023-04-11T18:11:16.781Z,38.46
2023-04-11T18:13:43.336Z,38.84
2023-04-11T18:16:09.944Z,40.40
2023-04-11T18:18:36.506Z,40.42
2023-04-11T18:21:04.930Z,40.31
2023-04-11T18:23:33.793Z,41.25
2023-04-11T18:26:00.386Z,41.91
2023-04-11T18:28:26.942Z,42.22
2023-04-11T18:30:53.593Z,42.63
2023-04-11T18:33:20.857Z,42.28
2023-04-11T18:35:47.680Z,41.78
2023-04-11T18:38:14.310Z,42.78
2023-04-11T18:40:40.922Z,42.51
2023-04-11T18:43:07.592Z,43.38
2023-04-11T18:45:34.196Z,44.16
2023-04-11T18:48:00.912Z,43.63
2023-04-11T18:50:27.671Z,42.34
2023-04-11T18:52:56.657Z,43.46
2023-04-11T18:55:26.695Z,43.95
2023-04-11T18:57:57.313Z,42.95
2023-04-11T19:00:25.877Z,42.98
2023-04-11T19:02:52.814Z,43.73
2023-04-11T19:05:19.660Z,43.49
2023-04-11T19:07:46.324Z,43.65
2023-04-11T19:10:12.923Z,43.59
2023-04-11T19:12:39.495Z,43.62
2023-04-11T19:15:06.051Z,44.12
2023-04-11T19:17:32.740Z,43.88
2023-04-11T19:19:59.337Z,44.10
2023-04-11T19:22:25.908Z,44.91
2023-04-11T19:24:55.442Z,44.74
2023-04-11T19:27:23.212Z,45.30
2023-04-11T19:29:52.095Z,43.80
2023-04-11T19:32:18.789Z,44.39
2023-04-11T19:34:45.353Z,45.70
2023-04-11T19:37:11.885Z,44.90
2023-04-11T19:39:38.666Z,44.84
2023-04-11T19:42:05.256Z,44.58
2023-04-11T19:44:31.856Z,44.83
2023-04-11T19:46:58.402Z,45.35
2023-04-11T19:49:24.956Z,45.26
2023-04-11T19:51:51.658Z,45.10
2023-04-11T19:54:18.228Z,44.89
2023-04-11T19:56:44.818Z,44.72
2023-04-11T19:59:11.401Z,44.02
2023-04-11T20:01:38.131Z,44.25
2023-04-11T20:04:04.992Z,43.00
2023-04-11T20:06:31.645Z,43.61
2023-04-11T20:08:59.247Z,43.41
2023-04-11T20:11:27.396Z,43.81
2023-04-11T20:13:55.803Z,43.85
2023-04-11T20:16:22.690Z,43.84
2023-04-11T20:18:49.273Z,42.89
2023-04-11T20:21:15.960Z,43.34
2023-04-11T20:23:42.509Z,44.18
2023-04-11T20:26:09.091Z,44.83
2023-04-11T20:28:35.625Z,44.39
2023-04-11T20:31:02.230Z,44.46
2023-04-11T20:33:28.904Z,44.73
2023-04-11T20:35:55.503Z,44.75
2023-04-11T20:38:22.098Z,45.25
2023-04-11T20:40:48.702Z,44.74
2023-04-11T20:43:15.253Z,45.10
2023-04-11T20:45:41.838Z,45.41
2023-04-11T20:48:08.428Z,44.16
2023-04-11T20:50:35.060Z,44.16
2023-04-11T20:53:01.606Z,47.06
2023-04-11T20:55:28.161Z,46.91
2023-04-11T20:57:54.753Z,46.97
2023-04-11T21:00:21.324Z,45.95
2023-04-11T21:02:48.010Z,46.21
2023-04-11T21:05:14.646Z,46.93
2023-04-11T21:07:41.841Z,47.05
2023-04-11T21:10:08.412Z,46.83
2023-04-11T21:12:34.985Z,46.11
2023-04-11T21:15:01.557Z,45.76
2023-04-11T21:17:28.177Z,46.00
2023-04-11T21:19:54.750Z,47.39
2023-04-11T21:22:21.293Z,47.10
2023-04-11T21:24:47.849Z,46.91
2023-04-11T21:27:14.441Z,46.32
2023-04-11T21:29:41.048Z,47.46
2023-04-11T21:32:07.768Z,46.43
2023-04-11T21:34:34.309Z,46.74
2023-04-11T21:37:01.002Z,46.73
2023-04-11T21:39:27.580Z,46.94
2023-04-11T21:41:54.210Z,46.61
2023-04-11T21:44:20.824Z,47.62
2023-04-11T21:46:47.406Z,46.97
2023-04-11T21:49:13.985Z,46.32
2023-04-11T21:51:40.556Z,46.98
2023-04-11T21:54:07.156Z,46.65
2023-04-11T21:56:33.730Z,47.16
2023-04-11T21:59:00.263Z,46.58
2023-04-11T22:01:27.001Z,47.42
2023-04-11T22:03:53.817Z,47.21
2023-04-11T22:06:20.540Z,47.05
2023-04-11T22:08:47.128Z,47.26
2023-04-11T22:11:13.677Z,47.65
2023-04-11T22:13:40.220Z,46.82
2023-04-11T22:16:06.817Z,46.98
2023-04-11T22:18:34.166Z,47.41
2023-04-11T22:21:01.458Z,47.01
2023-04-11T22:23:28.167Z,48.10
2023-04-11T22:25:54.691Z,47.78
2023-04-11T22:28:21.589Z,48.29
2023-04-11T22:30:48.194Z,48.21
2023-04-11T22:33:14.792Z,48.08
2023-04-11T22:35:41.382Z,48.78
2023-04-11T22:38:07.948Z,48.66
2023-04-11T22:40:34.514Z,48.64
2023-04-11T22:43:01.154Z,49.13
2023-04-11T22:45:27.725Z,48.86
2023-04-11T22:47:54.618Z,49.66
2023-04-11T22:50:21.276Z,49.75
2023-04-11T22:52:47.832Z,49.76
2023-04-11T22:55:14.392Z,49.38
2023-04-11T22:57:41.001Z,50.33
2023-04-11T23:00:07.602Z,52.14
2023-04-11T23:02:34.385Z,50.50
2023-04-11T23:05:01.068Z,51.15
2023-04-11T23:07:27.710Z,51.21
2023-04-11T23:09:54.265Z,51.72
2023-04-11T23:12:20.814Z,51.69
2023-04-11T23:14:47.366Z,50.97
2023-04-11T23:17:13.977Z,50.44
2023-04-11T23:19:40.534Z,50.05
2023-04-11T23:22:07.061Z,51.64
2023-04-11T23:24:33.641Z,50.61
2023-04-11T23:27:00.193Z,50.37
2023-04-11T23:29:26.752Z,50.39
2023-04-11T23:31:53.286Z,50.65
2023-04-11T23:34:19.896Z,50.41
2023-04-11T23:36:46.513Z,50.67
2023-04-11T23:39:13.128Z,50.12
2023-04-11T23:41:39.696Z,50.44
2023-04-11T23:44:06.274Z,49.86
2023-04-11T23:46:32.904Z,50.38
2023-04-11T23:48:59.538Z,50.56
2023-04-11T23:51:26.212Z,50.43
2023-04-11T23:53:52.821Z,50.90
2023-04-11T23:56:19.716Z,51.08
2023-04-11T23:58:46.314Z,50.35
